sensor_id;sensor_type;location;lat;lon;timestamp;P1;durP1;ratioP1;P2;durP2;ratioP2
20671;SDS011;10495;50.922;4.760;2023-06-22T00:00:50;4.93;;;3.80;;
20671;SDS011;10495;50.922;4.760;2023-06-22T00:03:17;5.05;;;3.80;;
20671;SDS011;10495;50.922;4.760;2023-06-22T00:05:44;4.45;;;3.60;;
20671;SDS011;10495;50.922;4.760;2023-06-22T00:08:10;4.75;;;3.95;;
20671;SDS011;10495;50.922;4.760;2023-06-22T00:10:36;4.53;;;3.60;;
20671;SDS011;10495;50.922;4.760;2023-06-22T00:13:01;4.30;;;3.63;;
20671;SDS011;10495;50.922;4.760;2023-06-22T00:15:27;4.57;;;3.60;;
20671;SDS011;10495;50.922;4.760;2023-06-22T00:17:53;4.97;;;3.67;;
20671;SDS011;10495;50.922;4.760;2023-06-22T00:20:19;5.03;;;3.47;;
20671;SDS011;10495;50.922;4.760;2023-06-22T00:22:44;3.42;;;3.05;;
20671;SDS011;10495;50.922;4.760;2023-06-22T00:25:11;5.95;;;3.50;;
20671;SDS011;10495;50.922;4.760;2023-06-22T00:27:36;4.05;;;3.15;;
20671;SDS011;10495;50.922;4.760;2023-06-22T00:30:02;3.70;;;3.03;;
20671;SDS011;10495;50.922;4.760;2023-06-22T00:32:28;3.97;;;3.58;;
20671;SDS011;10495;50.922;4.760;2023-06-22T00:34:54;3.78;;;3.25;;
20671;SDS011;10495;50.922;4.760;2023-06-22T00:37:20;3.90;;;3.42;;
20671;SDS011;10495;50.922;4.760;2023-06-22T00:39:50;3.45;;;2.95;;
20671;SDS011;10495;50.922;4.760;2023-06-22T00:42:16;5.53;;;4.25;;
20671;SDS011;10495;50.922;4.760;2023-06-22T00:44:42;4.10;;;3.65;;
20671;SDS011;10495;50.922;4.760;2023-06-22T00:47:08;3.42;;;3.13;;
20671;SDS011;10495;50.922;4.760;2023-06-22T00:49:34;4.50;;;3.13;;
20671;SDS011;10495;50.922;4.760;2023-06-22T00:52:00;3.90;;;3.50;;
20671;SDS011;10495;50.922;4.760;2023-06-22T00:54:27;5.25;;;4.00;;
20671;SDS011;10495;50.922;4.760;2023-06-22T00:56:53;3.67;;;2.97;;
20671;SDS011;10495;50.922;4.760;2023-06-22T00:59:21;4.20;;;3.20;;
20671;SDS011;10495;50.922;4.760;2023-06-22T01:01:48;3.53;;;3.22;;
20671;SDS011;10495;50.922;4.760;2023-06-22T01:04:13;7.57;;;3.28;;
20671;SDS011;10495;50.922;4.760;2023-06-22T01:06:58;3.35;;;3.05;;
20671;SDS011;10495;50.922;4.760;2023-06-22T01:10:21;3.75;;;3.33;;
20671;SDS011;10495;50.922;4.760;2023-06-22T01:12:30;3.50;;;3.15;;
20671;SDS011;10495;50.922;4.760;2023-06-22T01:15:22;7.03;;;3.92;;
20671;SDS011;10495;50.922;4.760;2023-06-22T01:17:54;3.38;;;3.05;;
20671;SDS011;10495;50.922;4.760;2023-06-22T01:20:22;8.15;;;4.63;;
20671;SDS011;10495;50.922;4.760;2023-06-22T01:22:58;4.03;;;3.63;;
20671;SDS011;10495;50.922;4.760;2023-06-22T01:25:28;3.53;;;3.22;;
20671;SDS011;10495;50.922;4.760;2023-06-22T01:31:06;4.18;;;3.25;;
20671;SDS011;10495;50.922;4.760;2023-06-22T01:33:34;3.38;;;2.67;;
20671;SDS011;10495;50.922;4.760;2023-06-22T01:36:02;5.35;;;3.20;;
20671;SDS011;10495;50.922;4.760;2023-06-22T01:38:29;5.78;;;3.38;;
20671;SDS011;10495;50.922;4.760;2023-06-22T01:40:56;4.32;;;3.50;;
20671;SDS011;10495;50.922;4.760;2023-06-22T01:43:24;5.57;;;3.03;;
20671;SDS011;10495;50.922;4.760;2023-06-22T01:45:51;5.70;;;5.13;;
20671;SDS011;10495;50.922;4.760;2023-06-22T01:48:17;5.95;;;3.63;;
20671;SDS011;10495;50.922;4.760;2023-06-22T01:50:44;5.20;;;3.85;;
20671;SDS011;10495;50.922;4.760;2023-06-22T01:53:10;4.47;;;3.80;;
20671;SDS011;10495;50.922;4.760;2023-06-22T01:55:36;4.75;;;3.85;;
20671;SDS011;10495;50.922;4.760;2023-06-22T01:58:01;5.60;;;3.92;;
20671;SDS011;10495;50.922;4.760;2023-06-22T02:00:27;7.03;;;3.78;;
20671;SDS011;10495;50.922;4.760;2023-06-22T02:05:46;5.50;;;3.92;;
20671;SDS011;10495;50.922;4.760;2023-06-22T02:08:19;3.90;;;3.17;;
20671;SDS011;10495;50.922;4.760;2023-06-22T02:10:48;4.43;;;3.38;;
20671;SDS011;10495;50.922;4.760;2023-06-22T02:13:15;3.55;;;3.25;;
20671;SDS011;10495;50.922;4.760;2023-06-22T02:15:41;3.83;;;3.53;;
20671;SDS011;10495;50.922;4.760;2023-06-22T02:18:07;7.28;;;3.90;;
20671;SDS011;10495;50.922;4.760;2023-06-22T02:20:36;4.35;;;3.95;;
20671;SDS011;10495;50.922;4.760;2023-06-22T02:23:02;3.25;;;2.95;;
20671;SDS011;10495;50.922;4.760;2023-06-22T02:25:28;4.35;;;3.53;;
20671;SDS011;10495;50.922;4.760;2023-06-22T02:27:53;4.47;;;3.88;;
20671;SDS011;10495;50.922;4.760;2023-06-22T02:30:19;3.85;;;3.40;;
20671;SDS011;10495;50.922;4.760;2023-06-22T02:32:45;6.38;;;4.30;;
20671;SDS011;10495;50.922;4.760;2023-06-22T02:35:10;8.02;;;4.18;;
20671;SDS011;10495;50.922;4.760;2023-06-22T02:37:36;5.10;;;3.67;;
20671;SDS011;10495;50.922;4.760;2023-06-22T02:40:09;5.07;;;3.85;;
20671;SDS011;10495;50.922;4.760;2023-06-22T02:42:35;3.83;;;3.53;;
20671;SDS011;10495;50.922;4.760;2023-06-22T02:45:04;4.03;;;3.67;;
20671;SDS011;10495;50.922;4.760;2023-06-22T02:47:30;4.78;;;3.78;;
20671;SDS011;10495;50.922;4.760;2023-06-22T02:49:56;3.72;;;3.40;;
20671;SDS011;10495;50.922;4.760;2023-06-22T02:52:22;4.90;;;3.63;;
20671;SDS011;10495;50.922;4.760;2023-06-22T02:54:47;6.00;;;4.10;;
20671;SDS011;10495;50.922;4.760;2023-06-22T02:57:13;4.07;;;3.43;;
20671;SDS011;10495;50.922;4.760;2023-06-22T02:59:39;3.38;;;2.97;;
20671;SDS011;10495;50.922;4.760;2023-06-22T03:02:06;3.78;;;3.38;;
20671;SDS011;10495;50.922;4.760;2023-06-22T03:04:34;4.13;;;3.33;;
20671;SDS011;10495;50.922;4.760;2023-06-22T03:07:00;4.22;;;3.63;;
20671;SDS011;10495;50.922;4.760;2023-06-22T03:09:29;6.22;;;3.88;;
20671;SDS011;10495;50.922;4.760;2023-06-22T03:11:55;6.13;;;5.05;;
20671;SDS011;10495;50.922;4.760;2023-06-22T03:14:20;7.63;;;5.00;;
20671;SDS011;10495;50.922;4.760;2023-06-22T03:16:46;4.28;;;3.88;;
20671;SDS011;10495;50.922;4.760;2023-06-22T03:19:12;5.13;;;4.00;;
20671;SDS011;10495;50.922;4.760;2023-06-22T03:21:38;5.90;;;4.13;;
20671;SDS011;10495;50.922;4.760;2023-06-22T03:24:04;4.20;;;3.70;;
20671;SDS011;10495;50.922;4.760;2023-06-22T03:26:34;5.75;;;4.43;;
20671;SDS011;10495;50.922;4.760;2023-06-22T03:28:59;4.15;;;3.58;;
20671;SDS011;10495;50.922;4.760;2023-06-22T03:31:25;5.90;;;4.35;;
20671;SDS011;10495;50.922;4.760;2023-06-22T03:33:51;8.07;;;5.18;;
20671;SDS011;10495;50.922;4.760;2023-06-22T03:36:17;5.43;;;4.93;;
20671;SDS011;10495;50.922;4.760;2023-06-22T03:38:49;6.43;;;4.78;;
20671;SDS011;10495;50.922;4.760;2023-06-22T03:41:15;8.55;;;6.72;;
20671;SDS011;10495;50.922;4.760;2023-06-22T03:43:41;7.03;;;5.63;;
20671;SDS011;10495;50.922;4.760;2023-06-22T03:46:07;5.65;;;4.82;;
20671;SDS011;10495;50.922;4.760;2023-06-22T03:48:32;7.53;;;5.00;;
20671;SDS011;10495;50.922;4.760;2023-06-22T03:51:01;5.93;;;4.93;;
20671;SDS011;10495;50.922;4.760;2023-06-22T03:53:28;7.05;;;4.72;;
20671;SDS011;10495;50.922;4.760;2023-06-22T03:55:55;6.03;;;5.30;;
20671;SDS011;10495;50.922;4.760;2023-06-22T03:58:21;5.60;;;4.53;;
20671;SDS011;10495;50.922;4.760;2023-06-22T04:00:50;6.40;;;4.80;;
20671;SDS011;10495;50.922;4.760;2023-06-22T04:03:17;5.78;;;4.57;;
20671;SDS011;10495;50.922;4.760;2023-06-22T04:05:46;5.85;;;4.43;;
20671;SDS011;10495;50.922;4.760;2023-06-22T04:08:12;4.78;;;4.05;;
20671;SDS011;10495;50.922;4.760;2023-06-22T04:10:39;5.13;;;4.15;;
20671;SDS011;10495;50.922;4.760;2023-06-22T04:13:04;6.72;;;4.65;;
20671;SDS011;10495;50.922;4.760;2023-06-22T04:15:30;5.20;;;4.18;;
20671;SDS011;10495;50.922;4.760;2023-06-22T04:17:56;5.07;;;4.57;;
20671;SDS011;10495;50.922;4.760;2023-06-22T04:20:22;5.90;;;4.00;;
20671;SDS011;10495;50.922;4.760;2023-06-22T04:22:50;7.68;;;4.78;;
20671;SDS011;10495;50.922;4.760;2023-06-22T04:25:16;6.18;;;5.00;;
20671;SDS011;10495;50.922;4.760;2023-06-22T04:27:42;6.18;;;4.85;;
20671;SDS011;10495;50.922;4.760;2023-06-22T04:30:08;5.35;;;3.95;;
20671;SDS011;10495;50.922;4.760;2023-06-22T04:32:34;5.28;;;4.57;;
20671;SDS011;10495;50.922;4.760;2023-06-22T04:35:03;7.53;;;5.85;;
20671;SDS011;10495;50.922;4.760;2023-06-22T04:37:31;5.90;;;5.07;;
20671;SDS011;10495;50.922;4.760;2023-06-22T04:39:57;5.82;;;5.22;;
20671;SDS011;10495;50.922;4.760;2023-06-22T04:42:25;7.25;;;4.85;;
20671;SDS011;10495;50.922;4.760;2023-06-22T04:44:51;5.75;;;4.65;;
20671;SDS011;10495;50.922;4.760;2023-06-22T04:47:17;4.60;;;3.63;;
20671;SDS011;10495;50.922;4.760;2023-06-22T04:49:43;3.95;;;3.58;;
20671;SDS011;10495;50.922;4.760;2023-06-22T04:52:09;5.95;;;3.58;;
20671;SDS011;10495;50.922;4.760;2023-06-22T04:54:37;4.57;;;4.07;;
20671;SDS011;10495;50.922;4.760;2023-06-22T04:57:05;4.97;;;4.47;;
20671;SDS011;10495;50.922;4.760;2023-06-22T04:59:35;5.10;;;4.22;;
20671;SDS011;10495;50.922;4.760;2023-06-22T05:02:01;6.63;;;5.45;;
20671;SDS011;10495;50.922;4.760;2023-06-22T05:04:28;5.20;;;4.63;;
20671;SDS011;10495;50.922;4.760;2023-06-22T05:06:58;7.32;;;5.55;;
20671;SDS011;10495;50.922;4.760;2023-06-22T05:09:27;9.88;;;5.70;;
20671;SDS011;10495;50.922;4.760;2023-06-22T05:11:53;5.78;;;5.18;;
20671;SDS011;10495;50.922;4.760;2023-06-22T05:14:19;8.27;;;6.00;;
20671;SDS011;10495;50.922;4.760;2023-06-22T05:16:45;12.45;;;6.78;;
20671;SDS011;10495;50.922;4.760;2023-06-22T05:19:11;5.75;;;5.00;;
20671;SDS011;10495;50.922;4.760;2023-06-22T05:21:37;5.22;;;4.25;;
20671;SDS011;10495;50.922;4.760;2023-06-22T05:24:04;8.25;;;5.40;;
20671;SDS011;10495;50.922;4.760;2023-06-22T05:26:30;7.93;;;6.00;;
20671;SDS011;10495;50.922;4.760;2023-06-22T05:28:56;9.00;;;6.13;;
20671;SDS011;10495;50.922;4.760;2023-06-22T05:31:22;9.57;;;7.32;;
20671;SDS011;10495;50.922;4.760;2023-06-22T05:33:52;8.85;;;6.93;;
20671;SDS011;10495;50.922;4.760;2023-06-22T05:36:19;8.82;;;6.82;;
20671;SDS011;10495;50.922;4.760;2023-06-22T05:38:45;11.00;;;7.50;;
20671;SDS011;10495;50.922;4.760;2023-06-22T05:41:11;8.10;;;6.63;;
20671;SDS011;10495;50.922;4.760;2023-06-22T05:43:36;8.98;;;7.03;;
20671;SDS011;10495;50.922;4.760;2023-06-22T05:46:03;8.60;;;6.60;;
20671;SDS011;10495;50.922;4.760;2023-06-22T05:48:29;7.68;;;6.75;;
20671;SDS011;10495;50.922;4.760;2023-06-22T05:50:55;16.27;;;8.48;;
20671;SDS011;10495;50.922;4.760;2023-06-22T05:53:20;8.00;;;6.75;;
20671;SDS011;10495;50.922;4.760;2023-06-22T05:55:46;11.20;;;7.50;;
20671;SDS011;10495;50.922;4.760;2023-06-22T05:58:12;8.93;;;7.63;;
20671;SDS011;10495;50.922;4.760;2023-06-22T06:00:40;7.45;;;6.05;;
20671;SDS011;10495;50.922;4.760;2023-06-22T06:03:07;9.05;;;7.03;;
20671;SDS011;10495;50.922;4.760;2023-06-22T06:05:33;10.35;;;7.25;;
20671;SDS011;10495;50.922;4.760;2023-06-22T06:08:00;11.10;;;7.80;;
20671;SDS011;10495;50.922;4.760;2023-06-22T06:10:26;8.35;;;6.97;;
20671;SDS011;10495;50.922;4.760;2023-06-22T06:12:54;10.55;;;7.53;;
20671;SDS011;10495;50.922;4.760;2023-06-22T06:15:20;6.93;;;5.75;;
20671;SDS011;10495;50.922;4.760;2023-06-22T06:17:52;10.55;;;8.63;;
20671;SDS011;10495;50.922;4.760;2023-06-22T06:20:19;11.77;;;8.75;;
20671;SDS011;10495;50.922;4.760;2023-06-22T06:22:46;10.98;;;8.85;;
20671;SDS011;10495;50.922;4.760;2023-06-22T06:25:13;15.18;;;9.80;;
20671;SDS011;10495;50.922;4.760;2023-06-22T06:27:41;13.88;;;8.85;;
20671;SDS011;10495;50.922;4.760;2023-06-22T06:30:08;10.27;;;7.65;;
20671;SDS011;10495;50.922;4.760;2023-06-22T06:32:35;13.38;;;8.98;;
20671;SDS011;10495;50.922;4.760;2023-06-22T06:35:01;12.88;;;9.88;;
20671;SDS011;10495;50.922;4.760;2023-06-22T06:37:26;11.70;;;9.93;;
20671;SDS011;10495;50.922;4.760;2023-06-22T06:39:53;15.68;;;11.82;;
20671;SDS011;10495;50.922;4.760;2023-06-22T06:42:18;16.08;;;9.95;;
20671;SDS011;10495;50.922;4.760;2023-06-22T06:44:44;13.48;;;10.50;;
20671;SDS011;10495;50.922;4.760;2023-06-22T06:47:10;15.23;;;11.90;;
20671;SDS011;10495;50.922;4.760;2023-06-22T06:49:36;13.77;;;11.02;;
20671;SDS011;10495;50.922;4.760;2023-06-22T06:52:01;13.60;;;10.50;;
20671;SDS011;10495;50.922;4.760;2023-06-22T06:54:27;14.65;;;9.60;;
20671;SDS011;10495;50.922;4.760;2023-06-22T06:56:53;13.55;;;9.90;;
20671;SDS011;10495;50.922;4.760;2023-06-22T06:59:18;11.70;;;10.07;;
20671;SDS011;10495;50.922;4.760;2023-06-22T07:01:44;12.98;;;9.05;;
20671;SDS011;10495;50.922;4.760;2023-06-22T07:04:10;11.77;;;9.45;;
20671;SDS011;10495;50.922;4.760;2023-06-22T07:06:35;11.00;;;9.25;;
20671;SDS011;10495;50.922;4.760;2023-06-22T07:09:02;13.88;;;10.75;;
20671;SDS011;10495;50.922;4.760;2023-06-22T07:11:28;15.52;;;9.77;;
20671;SDS011;10495;50.922;4.760;2023-06-22T07:13:54;11.32;;;10.13;;
20671;SDS011;10495;50.922;4.760;2023-06-22T07:16:20;11.00;;;9.90;;
20671;SDS011;10495;50.922;4.760;2023-06-22T07:18:45;15.68;;;10.27;;
20671;SDS011;10495;50.922;4.760;2023-06-22T07:21:11;12.43;;;9.38;;
20671;SDS011;10495;50.922;4.760;2023-06-22T07:23:36;13.40;;;10.30;;
20671;SDS011;10495;50.922;4.760;2023-06-22T07:26:02;10.95;;;9.00;;
20671;SDS011;10495;50.922;4.760;2023-06-22T07:28:28;12.40;;;10.68;;
20671;SDS011;10495;50.922;4.760;2023-06-22T07:30:56;12.65;;;9.68;;
20671;SDS011;10495;50.922;4.760;2023-06-22T07:33:22;16.52;;;11.32;;
20671;SDS011;10495;50.922;4.760;2023-06-22T07:35:47;14.05;;;9.60;;
20671;SDS011;10495;50.922;4.760;2023-06-22T07:38:14;12.50;;;9.68;;
20671;SDS011;10495;50.922;4.760;2023-06-22T07:40:40;12.65;;;9.57;;
20671;SDS011;10495;50.922;4.760;2023-06-22T07:43:06;12.52;;;9.82;;
20671;SDS011;10495;50.922;4.760;2023-06-22T07:45:32;14.45;;;9.82;;
20671;SDS011;10495;50.922;4.760;2023-06-22T07:48:00;9.90;;;8.80;;
20671;SDS011;10495;50.922;4.760;2023-06-22T07:50:26;11.23;;;8.90;;
20671;SDS011;10495;50.922;4.760;2023-06-22T07:52:51;10.20;;;8.57;;
20671;SDS011;10495;50.922;4.760;2023-06-22T07:55:17;10.95;;;8.70;;
20671;SDS011;10495;50.922;4.760;2023-06-22T07:57:43;13.30;;;9.27;;
20671;SDS011;10495;50.922;4.760;2023-06-22T08:00:09;12.43;;;9.02;;
20671;SDS011;10495;50.922;4.760;2023-06-22T08:02:42;10.48;;;7.82;;
20671;SDS011;10495;50.922;4.760;2023-06-22T08:05:09;11.73;;;8.20;;
20671;SDS011;10495;50.922;4.760;2023-06-22T08:07:35;9.30;;;8.27;;
20671;SDS011;10495;50.922;4.760;2023-06-22T08:10:04;12.02;;;7.90;;
20671;SDS011;10495;50.922;4.760;2023-06-22T08:12:31;8.73;;;7.40;;
20671;SDS011;10495;50.922;4.760;2023-06-22T08:14:56;8.73;;;7.28;;
20671;SDS011;10495;50.922;4.760;2023-06-22T08:17:23;11.95;;;7.40;;
20671;SDS011;10495;50.922;4.760;2023-06-22T08:19:49;9.70;;;6.70;;
20671;SDS011;10495;50.922;4.760;2023-06-22T08:22:15;8.45;;;6.72;;
20671;SDS011;10495;50.922;4.760;2023-06-22T08:24:41;9.23;;;7.15;;
20671;SDS011;10495;50.922;4.760;2023-06-22T08:27:07;8.45;;;6.60;;
20671;SDS011;10495;50.922;4.760;2023-06-22T08:29:40;9.52;;;6.35;;
20671;SDS011;10495;50.922;4.760;2023-06-22T08:32:08;9.60;;;6.43;;
20671;SDS011;10495;50.922;4.760;2023-06-22T08:34:35;7.90;;;6.40;;
20671;SDS011;10495;50.922;4.760;2023-06-22T08:37:01;8.20;;;6.10;;
20671;SDS011;10495;50.922;4.760;2023-06-22T08:39:31;5.55;;;5.00;;
20671;SDS011;10495;50.922;4.760;2023-06-22T08:41:57;8.48;;;5.72;;
20671;SDS011;10495;50.922;4.760;2023-06-22T08:44:23;11.73;;;6.25;;
20671;SDS011;10495;50.922;4.760;2023-06-22T08:46:48;8.52;;;5.15;;
20671;SDS011;10495;50.922;4.760;2023-06-22T08:49:14;6.57;;;5.28;;
20671;SDS011;10495;50.922;4.760;2023-06-22T08:51:40;6.43;;;5.10;;
20671;SDS011;10495;50.922;4.760;2023-06-22T08:54:05;5.93;;;4.93;;
20671;SDS011;10495;50.922;4.760;2023-06-22T08:56:31;7.88;;;5.60;;
20671;SDS011;10495;50.922;4.760;2023-06-22T08:58:57;6.43;;;5.60;;
20671;SDS011;10495;50.922;4.760;2023-06-22T09:01:24;4.78;;;4.28;;
20671;SDS011;10495;50.922;4.760;2023-06-22T09:03:49;5.05;;;4.47;;
20671;SDS011;10495;50.922;4.760;2023-06-22T09:06:19;5.63;;;4.93;;
20671;SDS011;10495;50.922;4.760;2023-06-22T09:08:46;5.05;;;4.35;;
20671;SDS011;10495;50.922;4.760;2023-06-22T09:11:12;6.68;;;5.50;;
20671;SDS011;10495;50.922;4.760;2023-06-22T09:13:38;9.30;;;4.82;;
20671;SDS011;10495;50.922;4.760;2023-06-22T09:16:04;5.15;;;3.67;;
20671;SDS011;10495;50.922;4.760;2023-06-22T09:18:29;6.53;;;4.32;;
20671;SDS011;10495;50.922;4.760;2023-06-22T09:20:55;7.63;;;4.95;;
20671;SDS011;10495;50.922;4.760;2023-06-22T09:23:21;4.75;;;4.28;;
20671;SDS011;10495;50.922;4.760;2023-06-22T09:25:46;4.15;;;3.28;;
20671;SDS011;10495;50.922;4.760;2023-06-22T09:28:13;5.88;;;4.65;;
20671;SDS011;10495;50.922;4.760;2023-06-22T09:30:39;8.35;;;6.45;;
20671;SDS011;10495;50.922;4.760;2023-06-22T09:33:04;8.90;;;6.57;;
20671;SDS011;10495;50.922;4.760;2023-06-22T09:35:30;8.60;;;6.60;;
20671;SDS011;10495;50.922;4.760;2023-06-22T09:37:56;8.07;;;6.50;;
20671;SDS011;10495;50.922;4.760;2023-06-22T09:40:21;9.13;;;7.55;;
20671;SDS011;10495;50.922;4.760;2023-06-22T09:42:47;11.55;;;9.40;;
20671;SDS011;10495;50.922;4.760;2023-06-22T09:45:12;11.80;;;9.13;;
20671;SDS011;10495;50.922;4.760;2023-06-22T09:47:38;9.90;;;8.52;;
20671;SDS011;10495;50.922;4.760;2023-06-22T09:50:04;12.10;;;9.68;;
20671;SDS011;10495;50.922;4.760;2023-06-22T09:52:30;14.25;;;11.38;;
20671;SDS011;10495;50.922;4.760;2023-06-22T09:54:56;15.82;;;11.20;;
20671;SDS011;10495;50.922;4.760;2023-06-22T09:57:22;14.82;;;12.43;;
20671;SDS011;10495;50.922;4.760;2023-06-22T09:59:47;15.75;;;11.52;;
20671;SDS011;10495;50.922;4.760;2023-06-22T10:02:13;19.27;;;13.55;;
20671;SDS011;10495;50.922;4.760;2023-06-22T10:04:38;18.35;;;15.23;;
20671;SDS011;10495;50.922;4.760;2023-06-22T10:07:05;16.13;;;12.98;;
20671;SDS011;10495;50.922;4.760;2023-06-22T10:09:31;18.80;;;13.57;;
20671;SDS011;10495;50.922;4.760;2023-06-22T10:11:56;20.63;;;16.57;;
20671;SDS011;10495;50.922;4.760;2023-06-22T10:14:22;19.17;;;16.17;;
20671;SDS011;10495;50.922;4.760;2023-06-22T10:16:49;19.33;;;15.48;;
20671;SDS011;10495;50.922;4.760;2023-06-22T10:19:16;20.13;;;16.13;;
20671;SDS011;10495;50.922;4.760;2023-06-22T10:21:41;26.33;;;19.43;;
20671;SDS011;10495;50.922;4.760;2023-06-22T10:24:07;23.00;;;18.33;;
20671;SDS011;10495;50.922;4.760;2023-06-22T10:26:33;26.23;;;19.33;;
20671;SDS011;10495;50.922;4.760;2023-06-22T10:28:59;25.95;;;18.58;;
20671;SDS011;10495;50.922;4.760;2023-06-22T10:31:25;26.27;;;19.60;;
20671;SDS011;10495;50.922;4.760;2023-06-22T10:33:52;27.83;;;19.73;;
20671;SDS011;10495;50.922;4.760;2023-06-22T10:36:18;23.30;;;19.10;;
20671;SDS011;10495;50.922;4.760;2023-06-22T10:38:44;26.30;;;19.37;;
20671;SDS011;10495;50.922;4.760;2023-06-22T10:41:10;26.13;;;18.90;;
20671;SDS011;10495;50.922;4.760;2023-06-22T10:43:36;21.63;;;18.20;;
20671;SDS011;10495;50.922;4.760;2023-06-22T10:46:01;24.40;;;17.77;;
20671;SDS011;10495;50.922;4.760;2023-06-22T10:48:27;22.70;;;17.90;;
20671;SDS011;10495;50.922;4.760;2023-06-22T10:50:52;21.15;;;16.30;;
20671;SDS011;10495;50.922;4.760;2023-06-22T10:53:19;28.15;;;19.70;;
20671;SDS011;10495;50.922;4.760;2023-06-22T10:55:45;27.15;;;19.17;;
20671;SDS011;10495;50.922;4.760;2023-06-22T10:58:11;26.23;;;19.70;;
20671;SDS011;10495;50.922;4.760;2023-06-22T11:00:36;25.27;;;19.90;;
20671;SDS011;10495;50.922;4.760;2023-06-22T11:03:02;25.70;;;19.93;;
20671;SDS011;10495;50.922;4.760;2023-06-22T11:05:28;29.23;;;21.43;;
20671;SDS011;10495;50.922;4.760;2023-06-22T11:07:53;27.13;;;21.17;;
20671;SDS011;10495;50.922;4.760;2023-06-22T11:10:19;31.25;;;22.35;;
20671;SDS011;10495;50.922;4.760;2023-06-22T11:12:44;24.70;;;20.60;;
20671;SDS011;10495;50.922;4.760;2023-06-22T11:15:10;29.73;;;22.02;;
20671;SDS011;10495;50.922;4.760;2023-06-22T11:17:36;28.27;;;21.83;;
20671;SDS011;10495;50.922;4.760;2023-06-22T11:20:01;29.00;;;20.90;;
20671;SDS011;10495;50.922;4.760;2023-06-22T11:22:34;32.47;;;23.43;;
20671;SDS011;10495;50.922;4.760;2023-06-22T11:25:00;27.73;;;21.67;;
20671;SDS011;10495;50.922;4.760;2023-06-22T11:27:26;31.43;;;24.17;;
20671;SDS011;10495;50.922;4.760;2023-06-22T11:29:51;29.65;;;21.92;;
20671;SDS011;10495;50.922;4.760;2023-06-22T11:32:18;29.83;;;23.10;;
20671;SDS011;10495;50.922;4.760;2023-06-22T11:34:44;32.13;;;24.83;;
20671;SDS011;10495;50.922;4.760;2023-06-22T11:37:09;31.60;;;24.30;;
20671;SDS011;10495;50.922;4.760;2023-06-22T11:39:35;31.33;;;24.13;;
20671;SDS011;10495;50.922;4.760;2023-06-22T11:42:00;29.50;;;23.27;;
20671;SDS011;10495;50.922;4.760;2023-06-22T11:44:26;31.80;;;24.20;;
20671;SDS011;10495;50.922;4.760;2023-06-22T11:46:52;28.00;;;24.77;;
20671;SDS011;10495;50.922;4.760;2023-06-22T11:49:17;30.67;;;23.70;;
20671;SDS011;10495;50.922;4.760;2023-06-22T11:51:43;32.53;;;25.42;;
20671;SDS011;10495;50.922;4.760;2023-06-22T11:54:08;34.10;;;24.63;;
20671;SDS011;10495;50.922;4.760;2023-06-22T11:56:34;30.27;;;24.43;;
20671;SDS011;10495;50.922;4.760;2023-06-22T11:58:59;32.07;;;24.43;;
20671;SDS011;10495;50.922;4.760;2023-06-22T12:01:25;31.90;;;24.73;;
20671;SDS011;10495;50.922;4.760;2023-06-22T12:03:50;30.40;;;24.63;;
20671;SDS011;10495;50.922;4.760;2023-06-22T12:06:17;36.80;;;27.07;;
20671;SDS011;10495;50.922;4.760;2023-06-22T12:08:42;28.33;;;23.93;;
20671;SDS011;10495;50.922;4.760;2023-06-22T12:11:08;35.23;;;27.07;;
20671;SDS011;10495;50.922;4.760;2023-06-22T12:13:33;35.17;;;25.90;;
20671;SDS011;10495;50.922;4.760;2023-06-22T12:15:59;38.63;;;28.33;;
20671;SDS011;10495;50.922;4.760;2023-06-22T12:18:25;38.13;;;28.57;;
20671;SDS011;10495;50.922;4.760;2023-06-22T12:20:50;42.07;;;30.17;;
20671;SDS011;10495;50.922;4.760;2023-06-22T12:23:16;39.73;;;30.13;;
20671;SDS011;10495;50.922;4.760;2023-06-22T12:25:41;40.80;;;28.90;;
20671;SDS011;10495;50.922;4.760;2023-06-22T12:28:07;36.20;;;28.00;;
20671;SDS011;10495;50.922;4.760;2023-06-22T12:30:33;40.37;;;30.20;;
20671;SDS011;10495;50.922;4.760;2023-06-22T12:32:58;39.23;;;29.47;;
20671;SDS011;10495;50.922;4.760;2023-06-22T12:35:24;38.47;;;27.33;;
20671;SDS011;10495;50.922;4.760;2023-06-22T12:37:50;47.77;;;31.67;;
20671;SDS011;10495;50.922;4.760;2023-06-22T12:40:15;42.03;;;30.37;;
20671;SDS011;10495;50.922;4.760;2023-06-22T12:42:41;40.97;;;30.67;;
20671;SDS011;10495;50.922;4.760;2023-06-22T12:45:07;40.60;;;30.80;;
20671;SDS011;10495;50.922;4.760;2023-06-22T12:47:34;37.70;;;29.53;;
20671;SDS011;10495;50.922;4.760;2023-06-22T12:49:59;43.33;;;30.00;;
20671;SDS011;10495;50.922;4.760;2023-06-22T12:52:25;44.50;;;32.27;;
20671;SDS011;10495;50.922;4.760;2023-06-22T12:54:50;43.47;;;33.05;;
20671;SDS011;10495;50.922;4.760;2023-06-22T12:57:17;43.60;;;32.30;;
20671;SDS011;10495;50.922;4.760;2023-06-22T12:59:44;42.65;;;31.27;;
20671;SDS011;10495;50.922;4.760;2023-06-22T13:02:10;45.80;;;32.77;;
20671;SDS011;10495;50.922;4.760;2023-06-22T13:04:35;38.80;;;28.60;;
20671;SDS011;10495;50.922;4.760;2023-06-22T13:07:01;40.93;;;28.80;;
20671;SDS011;10495;50.922;4.760;2023-06-22T13:09:27;41.30;;;30.13;;
20671;SDS011;10495;50.922;4.760;2023-06-22T13:11:52;44.73;;;31.73;;
20671;SDS011;10495;50.922;4.760;2023-06-22T13:14:18;36.70;;;28.63;;
20671;SDS011;10495;50.922;4.760;2023-06-22T13:16:44;39.23;;;30.20;;
20671;SDS011;10495;50.922;4.760;2023-06-22T13:19:09;42.20;;;31.63;;
20671;SDS011;10495;50.922;4.760;2023-06-22T13:21:35;43.70;;;30.43;;
20671;SDS011;10495;50.922;4.760;2023-06-22T13:24:00;37.47;;;28.77;;
20671;SDS011;10495;50.922;4.760;2023-06-22T13:26:26;42.73;;;30.93;;
20671;SDS011;10495;50.922;4.760;2023-06-22T13:28:53;42.83;;;31.47;;
20671;SDS011;10495;50.922;4.760;2023-06-22T13:31:19;43.03;;;31.47;;
20671;SDS011;10495;50.922;4.760;2023-06-22T13:33:44;38.63;;;29.47;;
20671;SDS011;10495;50.922;4.760;2023-06-22T13:36:12;39.30;;;29.55;;
20671;SDS011;10495;50.922;4.760;2023-06-22T13:38:38;39.90;;;30.13;;
20671;SDS011;10495;50.922;4.760;2023-06-22T13:41:04;42.30;;;31.53;;
20671;SDS011;10495;50.922;4.760;2023-06-22T13:43:30;36.97;;;30.27;;
20671;SDS011;10495;50.922;4.760;2023-06-22T13:45:56;38.97;;;30.23;;
20671;SDS011;10495;50.922;4.760;2023-06-22T13:48:22;45.53;;;32.10;;
20671;SDS011;10495;50.922;4.760;2023-06-22T13:50:48;39.77;;;30.80;;
20671;SDS011;10495;50.922;4.760;2023-06-22T13:53:14;40.77;;;29.87;;
20671;SDS011;10495;50.922;4.760;2023-06-22T13:55:40;37.00;;;28.37;;
20671;SDS011;10495;50.922;4.760;2023-06-22T13:58:06;36.30;;;28.37;;
20671;SDS011;10495;50.922;4.760;2023-06-22T14:00:32;38.43;;;29.73;;
20671;SDS011;10495;50.922;4.760;2023-06-22T14:02:57;37.90;;;29.10;;
20671;SDS011;10495;50.922;4.760;2023-06-22T14:05:23;35.27;;;29.50;;
20671;SDS011;10495;50.922;4.760;2023-06-22T14:07:49;38.97;;;29.10;;
20671;SDS011;10495;50.922;4.760;2023-06-22T14:10:14;34.93;;;28.43;;
20671;SDS011;10495;50.922;4.760;2023-06-22T14:12:40;36.27;;;28.40;;
20671;SDS011;10495;50.922;4.760;2023-06-22T14:15:05;32.13;;;26.97;;
20671;SDS011;10495;50.922;4.760;2023-06-22T14:17:31;37.00;;;28.27;;
20671;SDS011;10495;50.922;4.760;2023-06-22T14:19:57;38.00;;;28.60;;
20671;SDS011;10495;50.922;4.760;2023-06-22T14:22:23;35.90;;;27.83;;
20671;SDS011;10495;50.922;4.760;2023-06-22T14:24:48;37.50;;;27.63;;
20671;SDS011;10495;50.922;4.760;2023-06-22T14:27:14;37.13;;;29.07;;
20671;SDS011;10495;50.922;4.760;2023-06-22T14:29:40;34.27;;;28.57;;
20671;SDS011;10495;50.922;4.760;2023-06-22T14:32:07;37.65;;;27.73;;
20671;SDS011;10495;50.922;4.760;2023-06-22T14:34:33;36.78;;;27.70;;
20671;SDS011;10495;50.922;4.760;2023-06-22T14:37:01;33.33;;;27.93;;